sensor_id;sensor_type;location;lat;lon;timestamp;pressure;altitude;pressure_sealevel;temperature;humidity
79037;BME280;68434;59.896;30.474;2023-03-20T00:00:45;101511.03;;;6.58;54.08
79037;BME280;68434;59.896;30.474;2023-03-20T00:03:13;101505.66;;;6.58;54.04
79037;BME280;68434;59.896;30.474;2023-03-20T00:05:41;101503.09;;;6.57;54.18
79037;BME280;68434;59.896;30.474;2023-03-20T00:08:08;101500.50;;;6.55;54.19
79037;BME280;68434;59.896;30.474;2023-03-20T00:10:39;101495.03;;;6.57;54.41
79037;BME280;68434;59.896;30.474;2023-03-20T00:13:13;101483.63;;;6.53;54.74
79037;BME280;68434;59.896;30.474;2023-03-20T00:15:43;101484.59;;;6.52;54.65
79037;BME280;68434;59.896;30.474;2023-03-20T00:18:14;101481.16;;;6.50;54.84
79037;BME280;68434;59.896;30.474;2023-03-20T00:20:43;101488.38;;;6.50;54.80
79037;BME280;68434;59.896;30.474;2023-03-20T00:23:11;101497.16;;;6.52;54.99
79037;BME280;68434;59.896;30.474;2023-03-20T00:25:39;101487.41;;;6.51;54.94
79037;BME280;68434;59.896;30.474;2023-03-20T00:28:29;101491.19;;;6.48;55.25
79037;BME280;68434;59.896;30.474;2023-03-20T00:31:01;101488.28;;;6.51;54.97
79037;BME280;68434;59.896;30.474;2023-03-20T00:33:28;101489.09;;;6.52;54.85
79037;BME280;68434;59.896;30.474;2023-03-20T00:35:56;101484.06;;;6.47;55.69
79037;BME280;68434;59.896;30.474;2023-03-20T00:38:24;101483.22;;;6.47;55.47
79037;BME280;68434;59.896;30.474;2023-03-20T00:40:51;101475.78;;;6.50;55.52
79037;BME280;68434;59.896;30.474;2023-03-20T00:43:19;101484.81;;;6.49;55.51
79037;BME280;68434;59.896;30.474;2023-03-20T00:45:46;101487.41;;;6.51;55.60
79037;BME280;68434;59.896;30.474;2023-03-20T00:48:15;101473.19;;;6.49;55.72
79037;BME280;68434;59.896;30.474;2023-03-20T00:50:42;101473.53;;;6.44;55.70
79037;BME280;68434;59.896;30.474;2023-03-20T00:53:09;101467.31;;;6.44;55.97
79037;BME280;68434;59.896;30.474;2023-03-20T00:55:38;101467.22;;;6.45;56.01
79037;BME280;68434;59.896;30.474;2023-03-20T00:58:06;101458.16;;;6.46;55.60
79037;BME280;68434;59.896;30.474;2023-03-20T01:00:37;101453.13;;;6.42;56.18
79037;BME280;68434;59.896;30.474;2023-03-20T01:03:15;101457.53;;;6.43;56.19
79037;BME280;68434;59.896;30.474;2023-03-20T01:05:46;101464.09;;;6.39;56.30
79037;BME280;68434;59.896;30.474;2023-03-20T01:08:16;101460.03;;;6.33;56.60
79037;BME280;68434;59.896;30.474;2023-03-20T01:10:45;101466.13;;;6.35;56.49
79037;BME280;68434;59.896;30.474;2023-03-20T01:13:18;101455.16;;;6.38;56.60
79037;BME280;68434;59.896;30.474;2023-03-20T01:15:48;101458.19;;;6.34;56.80
79037;BME280;68434;59.896;30.474;2023-03-20T01:18:18;101462.63;;;6.35;56.80
79037;BME280;68434;59.896;30.474;2023-03-20T01:20:46;101442.06;;;6.34;56.65
79037;BME280;68434;59.896;30.474;2023-03-20T01:23:14;101449.06;;;6.36;56.45
79037;BME280;68434;59.896;30.474;2023-03-20T01:25:42;101440.66;;;6.41;56.37
79037;BME280;68434;59.896;30.474;2023-03-20T01:28:14;101434.19;;;6.43;56.56
79037;BME280;68434;59.896;30.474;2023-03-20T01:30:44;101429.69;;;6.44;55.98
79037;BME280;68434;59.896;30.474;2023-03-20T01:33:13;101436.47;;;6.37;56.51
79037;BME280;68434;59.896;30.474;2023-03-20T01:35:44;101432.59;;;6.41;56.23
79037;BME280;68434;59.896;30.474;2023-03-20T01:38:15;101436.78;;;6.45;56.63
79037;BME280;68434;59.896;30.474;2023-03-20T01:40:53;101438.75;;;6.30;56.82
79037;BME280;68434;59.896;30.474;2023-03-20T01:43:24;101425.44;;;6.29;57.04
79037;BME280;68434;59.896;30.474;2023-03-20T01:45:55;101440.47;;;6.31;57.00
79037;BME280;68434;59.896;30.474;2023-03-20T01:48:34;101435.66;;;6.24;57.50
79037;BME280;68434;59.896;30.474;2023-03-20T01:51:05;101444.25;;;6.29;57.36
79037;BME280;68434;59.896;30.474;2023-03-20T01:53:32;101430.06;;;6.27;57.16
79037;BME280;68434;59.896;30.474;2023-03-20T01:56:02;101424.78;;;6.25;57.28
79037;BME280;68434;59.896;30.474;2023-03-20T01:58:42;101417.50;;;6.27;57.24
79037;BME280;68434;59.896;30.474;2023-03-20T02:01:13;101410.16;;;6.29;56.82
79037;BME280;68434;59.896;30.474;2023-03-20T02:03:47;101404.66;;;6.31;57.15
79037;BME280;68434;59.896;30.474;2023-03-20T02:06:38;101408.22;;;6.31;56.95
79037;BME280;68434;59.896;30.474;2023-03-20T02:09:30;101397.59;;;6.30;56.94
79037;BME280;68434;59.896;30.474;2023-03-20T02:11:59;101399.06;;;6.34;56.86
79037;BME280;68434;59.896;30.474;2023-03-20T02:14:27;101406.91;;;6.37;56.82
79037;BME280;68434;59.896;30.474;2023-03-20T02:17:30;101405.53;;;6.31;56.99
79037;BME280;68434;59.896;30.474;2023-03-20T02:20:11;101402.09;;;6.29;57.23
79037;BME280;68434;59.896;30.474;2023-03-20T02:26:04;101383.22;;;6.18;57.84
79037;BME280;68434;59.896;30.474;2023-03-20T02:32:25;101395.03;;;6.16;57.84
79037;BME280;68434;59.896;30.474;2023-03-20T02:38:19;101389.66;;;6.16;58.22
79037;BME280;68434;59.896;30.474;2023-03-20T02:40:57;101381.66;;;6.03;58.49
79037;BME280;68434;59.896;30.474;2023-03-20T02:43:32;101389.19;;;5.98;58.91
79037;BME280;68434;59.896;30.474;2023-03-20T02:46:04;101377.69;;;5.96;58.31
79037;BME280;68434;59.896;30.474;2023-03-20T02:48:45;101377.78;;;5.95;58.45
79037;BME280;68434;59.896;30.474;2023-03-20T02:51:21;101376.06;;;5.94;58.67
79037;BME280;68434;59.896;30.474;2023-03-20T02:53:53;101392.84;;;5.97;58.21
79037;BME280;68434;59.896;30.474;2023-03-20T02:56:28;101385.44;;;5.88;58.76
79037;BME280;68434;59.896;30.474;2023-03-20T02:59:02;101382.88;;;5.87;59.05
79037;BME280;68434;59.896;30.474;2023-03-20T03:01:35;101375.66;;;5.87;58.87
79037;BME280;68434;59.896;30.474;2023-03-20T03:04:09;101381.25;;;5.84;59.04
79037;BME280;68434;59.896;30.474;2023-03-20T03:06:38;101381.13;;;5.86;58.89
79037;BME280;68434;59.896;30.474;2023-03-20T03:09:14;101392.38;;;5.78;59.46
79037;BME280;68434;59.896;30.474;2023-03-20T03:11:47;101390.91;;;5.74;59.31
79037;BME280;68434;59.896;30.474;2023-03-20T03:14:20;101389.50;;;5.68;59.64
79037;BME280;68434;59.896;30.474;2023-03-20T03:16:51;101377.69;;;5.58;59.87
79037;BME280;68434;59.896;30.474;2023-03-20T03:19:23;101383.72;;;5.62;59.74
79037;BME280;68434;59.896;30.474;2023-03-20T03:21:53;101374.91;;;5.60;59.79
79037;BME280;68434;59.896;30.474;2023-03-20T03:24:29;101382.44;;;5.55;59.74
79037;BME280;68434;59.896;30.474;2023-03-20T03:26:59;101375.53;;;5.51;59.78
79037;BME280;68434;59.896;30.474;2023-03-20T03:29:32;101375.13;;;5.44;59.61
79037;BME280;68434;59.896;30.474;2023-03-20T03:32:01;101362.16;;;5.38;59.84
79037;BME280;68434;59.896;30.474;2023-03-20T03:34:30;101359.88;;;5.32;60.17
79037;BME280;68434;59.896;30.474;2023-03-20T03:37:04;101361.03;;;5.28;60.29
79037;BME280;68434;59.896;30.474;2023-03-20T03:39:36;101359.34;;;5.27;60.21
79037;BME280;68434;59.896;30.474;2023-03-20T03:42:12;101353.22;;;5.25;60.38
79037;BME280;68434;59.896;30.474;2023-03-20T03:44:50;101351.19;;;5.29;60.81
79037;BME280;68434;59.896;30.474;2023-03-20T03:47:24;101371.03;;;5.26;60.64
79037;BME280;68434;59.896;30.474;2023-03-20T03:49:57;101365.03;;;5.35;60.64
79037;BME280;68434;59.896;30.474;2023-03-20T03:52:30;101368.03;;;5.31;60.95
79037;BME280;68434;59.896;30.474;2023-03-20T03:55:03;101375.13;;;5.32;60.63
79037;BME280;68434;59.896;30.474;2023-03-20T03:57:33;101373.63;;;5.28;60.43
79037;BME280;68434;59.896;30.474;2023-03-20T04:00:07;101383.81;;;5.23;61.16
79037;BME280;68434;59.896;30.474;2023-03-20T04:02:40;101372.31;;;5.21;61.16
79037;BME280;68434;59.896;30.474;2023-03-20T04:05:09;101370.81;;;5.17;61.42
79037;BME280;68434;59.896;30.474;2023-03-20T04:07:38;101367.38;;;5.02;62.02
79037;BME280;68434;59.896;30.474;2023-03-20T04:10:08;101364.03;;;4.99;61.88
79037;BME280;68434;59.896;30.474;2023-03-20T04:12:37;101369.06;;;5.03;61.72
79037;BME280;68434;59.896;30.474;2023-03-20T04:15:09;101370.59;;;5.07;61.48
79037;BME280;68434;59.896;30.474;2023-03-20T04:17:37;101365.88;;;5.11;61.38
79037;BME280;68434;59.896;30.474;2023-03-20T04:20:07;101356.66;;;5.02;62.11
79037;BME280;68434;59.896;30.474;2023-03-20T04:22:35;101354.91;;;4.89;62.35
79037;BME280;68434;59.896;30.474;2023-03-20T04:25:09;101353.19;;;4.88;62.80
79037;BME280;68434;59.896;30.474;2023-03-20T04:27:39;101337.44;;;4.83;62.57
79037;BME280;68434;59.896;30.474;2023-03-20T04:30:13;101319.59;;;4.82;63.24
79037;BME280;68434;59.896;30.474;2023-03-20T04:32:58;101330.22;;;4.84;63.51
79037;BME280;68434;59.896;30.474;2023-03-20T04:35:35;101328.00;;;4.90;63.08
79037;BME280;68434;59.896;30.474;2023-03-20T04:38:09;101330.03;;;4.99;62.54
79037;BME280;68434;59.896;30.474;2023-03-20T04:40:38;101332.72;;;4.99;62.37
79037;BME280;68434;59.896;30.474;2023-03-20T04:43:07;101330.59;;;5.04;62.31
79037;BME280;68434;59.896;30.474;2023-03-20T04:45:35;101324.16;;;5.07;62.54
79037;BME280;68434;59.896;30.474;2023-03-20T04:48:06;101327.38;;;5.12;62.09
79037;BME280;68434;59.896;30.474;2023-03-20T04:50:34;101336.94;;;5.16;61.81
79037;BME280;68434;59.896;30.474;2023-03-20T04:53:02;101322.44;;;5.18;62.08
79037;BME280;68434;59.896;30.474;2023-03-20T04:55:30;101326.31;;;5.14;61.71
79037;BME280;68434;59.896;30.474;2023-03-20T04:58:00;101330.06;;;5.12;62.21
79037;BME280;68434;59.896;30.474;2023-03-20T05:00:28;101324.03;;;5.08;62.54
79037;BME280;68434;59.896;30.474;2023-03-20T05:02:56;101325.97;;;5.06;62.65
79037;BME280;68434;59.896;30.474;2023-03-20T05:05:23;101324.16;;;5.07;62.86
79037;BME280;68434;59.896;30.474;2023-03-20T05:07:51;101331.56;;;5.16;62.42
79037;BME280;68434;59.896;30.474;2023-03-20T05:10:28;101323.72;;;5.25;61.70
79037;BME280;68434;59.896;30.474;2023-03-20T05:13:03;101324.38;;;5.29;61.82
79037;BME280;68434;59.896;30.474;2023-03-20T05:15:53;101316.31;;;5.29;62.43
79037;BME280;68434;59.896;30.474;2023-03-20T05:18:41;101319.66;;;5.32;62.23
79037;BME280;68434;59.896;30.474;2023-03-20T05:21:35;101321.13;;;5.36;62.33
79037;BME280;68434;59.896;30.474;2023-03-20T05:24:35;101314.38;;;5.43;62.36
79037;BME280;68434;59.896;30.474;2023-03-20T05:27:09;101315.34;;;5.42;62.84
79037;BME280;68434;59.896;30.474;2023-03-20T05:30:16;101319.84;;;5.42;62.88
79037;BME280;68434;59.896;30.474;2023-03-20T05:32:50;101309.31;;;5.39;63.45
79037;BME280;68434;59.896;30.474;2023-03-20T05:35:27;101311.47;;;5.46;63.51
79037;BME280;68434;59.896;30.474;2023-03-20T05:38:18;101308.22;;;5.54;63.26
79037;BME280;68434;59.896;30.474;2023-03-20T05:41:22;101303.50;;;5.57;63.31
79037;BME280;68434;59.896;30.474;2023-03-20T05:44:03;101308.13;;;5.68;62.67
79037;BME280;68434;59.896;30.474;2023-03-20T05:46:53;101297.69;;;5.76;62.58
79037;BME280;68434;59.896;30.474;2023-03-20T05:49:38;101294.78;;;5.79;62.44
79037;BME280;68434;59.896;30.474;2023-03-20T05:52:24;101276.53;;;5.71;62.38
79037;BME280;68434;59.896;30.474;2023-03-20T05:55:12;101295.97;;;5.88;62.73
79037;BME280;68434;59.896;30.474;2023-03-20T05:58:06;101307.72;;;6.10;62.10
79037;BME280;68434;59.896;30.474;2023-03-20T06:00:56;101291.78;;;6.78;60.49
79037;BME280;68434;59.896;30.474;2023-03-20T06:03:45;101287.34;;;7.55;58.36
79037;BME280;68434;59.896;30.474;2023-03-20T06:06:16;101291.09;;;7.97;56.93
79037;BME280;68434;59.896;30.474;2023-03-20T06:08:48;101285.19;;;8.25;55.74
79037;BME280;68434;59.896;30.474;2023-03-20T06:11:16;101283.72;;;8.10;56.13
79037;BME280;68434;59.896;30.474;2023-03-20T06:13:44;101285.44;;;8.00;56.28
79037;BME280;68434;59.896;30.474;2023-03-20T06:16:11;101281.28;;;8.07;55.97
79037;BME280;68434;59.896;30.474;2023-03-20T06:18:39;101289.59;;;8.26;55.80
79037;BME280;68434;59.896;30.474;2023-03-20T06:21:09;101282.25;;;8.60;54.93
79037;BME280;68434;59.896;30.474;2023-03-20T06:23:38;101279.16;;;8.33;54.75
79037;BME280;68434;59.896;30.474;2023-03-20T06:26:06;101274.41;;;8.03;55.55
79037;BME280;68434;59.896;30.474;2023-03-20T06:28:44;101266.63;;;7.89;56.48
79037;BME280;68434;59.896;30.474;2023-03-20T06:31:13;101267.81;;;8.07;56.34
79037;BME280;68434;59.896;30.474;2023-03-20T06:33:41;101272.22;;;8.08;56.24
79037;BME280;68434;59.896;30.474;2023-03-20T06:36:11;101262.31;;;8.09;56.39
79037;BME280;68434;59.896;30.474;2023-03-20T06:38:38;101254.59;;;8.04;56.39
79037;BME280;68434;59.896;30.474;2023-03-20T06:41:11;101270.94;;;8.34;55.99
79037;BME280;68434;59.896;30.474;2023-03-20T06:43:39;101260.78;;;8.99;53.90
79037;BME280;68434;59.896;30.474;2023-03-20T06:46:09;101259.53;;;9.24;53.63
79037;BME280;68434;59.896;30.474;2023-03-20T06:48:36;101253.03;;;9.06;52.87
79037;BME280;68434;59.896;30.474;2023-03-20T06:51:06;101250.53;;;8.73;54.25
79037;BME280;68434;59.896;30.474;2023-03-20T06:53:43;101256.97;;;8.40;55.38
79037;BME280;68434;59.896;30.474;2023-03-20T06:56:17;101255.84;;;8.43;55.12
79037;BME280;68434;59.896;30.474;2023-03-20T06:58:45;101254.00;;;8.43;54.70
79037;BME280;68434;59.896;30.474;2023-03-20T07:01:13;101250.72;;;8.29;55.00
79037;BME280;68434;59.896;30.474;2023-03-20T07:03:43;101250.75;;;8.18;55.42
79037;BME280;68434;59.896;30.474;2023-03-20T07:06:11;101243.91;;;8.14;55.47
79037;BME280;68434;59.896;30.474;2023-03-20T07:08:39;101242.22;;;8.02;55.34
79037;BME280;68434;59.896;30.474;2023-03-20T07:11:08;101239.66;;;8.00;55.43
79037;BME280;68434;59.896;30.474;2023-03-20T07:13:35;101244.09;;;7.90;56.29
79037;BME280;68434;59.896;30.474;2023-03-20T07:16:14;101242.75;;;7.85;56.87
79037;BME280;68434;59.896;30.474;2023-03-20T07:18:42;101239.47;;;7.81;56.35
79037;BME280;68434;59.896;30.474;2023-03-20T07:21:10;101234.69;;;7.85;56.42
79037;BME280;68434;59.896;30.474;2023-03-20T07:23:43;101229.69;;;7.69;56.71
79037;BME280;68434;59.896;30.474;2023-03-20T07:26:12;101233.50;;;7.55;56.98
79037;BME280;68434;59.896;30.474;2023-03-20T07:28:40;101224.72;;;7.42;57.55
79037;BME280;68434;59.896;30.474;2023-03-20T07:31:22;101222.38;;;7.49;57.31
79037;BME280;68434;59.896;30.474;2023-03-20T07:33:56;101234.84;;;7.50;57.36
79037;BME280;68434;59.896;30.474;2023-03-20T07:36:23;101226.28;;;7.56;57.07
79037;BME280;68434;59.896;30.474;2023-03-20T07:38:51;101235.56;;;7.63;56.70
79037;BME280;68434;59.896;30.474;2023-03-20T07:41:20;101221.03;;;7.65;56.38
79037;BME280;68434;59.896;30.474;2023-03-20T07:43:57;101228.47;;;7.62;56.79
79037;BME280;68434;59.896;30.474;2023-03-20T07:46:48;101222.34;;;7.60;56.29
79037;BME280;68434;59.896;30.474;2023-03-20T07:49:16;101223.34;;;7.59;56.69
79037;BME280;68434;59.896;30.474;2023-03-20T07:51:45;101226.28;;;7.56;56.80
79037;BME280;68434;59.896;30.474;2023-03-20T07:54:12;101216.25;;;7.58;56.77
79037;BME280;68434;59.896;30.474;2023-03-20T07:56:41;101220.66;;;7.59;56.58
79037;BME280;68434;59.896;30.474;2023-03-20T07:59:11;101214.81;;;7.43;56.96
79037;BME280;68434;59.896;30.474;2023-03-20T08:01:38;101202.06;;;7.45;57.07
79037;BME280;68434;59.896;30.474;2023-03-20T08:04:06;101204.88;;;7.54;56.55
79037;BME280;68434;59.896;30.474;2023-03-20T08:06:33;101195.97;;;7.43;57.34
79037;BME280;68434;59.896;30.474;2023-03-20T08:09:02;101198.78;;;7.41;56.88
79037;BME280;68434;59.896;30.474;2023-03-20T08:11:30;101193.03;;;7.46;56.65
79037;BME280;68434;59.896;30.474;2023-03-20T08:13:59;101191.78;;;7.50;57.24
79037;BME280;68434;59.896;30.474;2023-03-20T08:16:26;101185.66;;;7.59;57.09
79037;BME280;68434;59.896;30.474;2023-03-20T08:18:53;101190.16;;;7.58;57.03
79037;BME280;68434;59.896;30.474;2023-03-20T08:21:26;101185.78;;;7.57;56.54
79037;BME280;68434;59.896;30.474;2023-03-20T08:23:53;101181.13;;;7.59;57.00
79037;BME280;68434;59.896;30.474;2023-03-20T08:26:21;101182.72;;;7.62;57.13
79037;BME280;68434;59.896;30.474;2023-03-20T08:28:49;101184.53;;;7.61;57.35
79037;BME280;68434;59.896;30.474;2023-03-20T08:31:18;101172.69;;;7.53;57.28
79037;BME280;68434;59.896;30.474;2023-03-20T08:33:46;101181.38;;;7.56;57.88
79037;BME280;68434;59.896;30.474;2023-03-20T08:36:14;101175.75;;;7.59;57.19
79037;BME280;68434;59.896;30.474;2023-03-20T08:38:44;101176.97;;;7.55;57.64
79037;BME280;68434;59.896;30.474;2023-03-20T08:41:12;101180.00;;;7.62;56.94
79037;BME280;68434;59.896;30.474;2023-03-20T08:43:39;101183.31;;;7.65;56.72
79037;BME280;68434;59.896;30.474;2023-03-20T08:46:07;101168.63;;;7.58;57.23
79037;BME280;68434;59.896;30.474;2023-03-20T08:48:36;101171.44;;;7.68;56.79
79037;BME280;68434;59.896;30.474;2023-03-20T08:51:04;101173.13;;;7.80;56.96
79037;BME280;68434;59.896;30.474;2023-03-20T08:53:32;101178.94;;;7.96;56.93
79037;BME280;68434;59.896;30.474;2023-03-20T08:55:59;101170.06;;;8.05;56.68
79037;BME280;68434;59.896;30.474;2023-03-20T08:58:28;101169.56;;;8.11;55.58
79037;BME280;68434;59.896;30.474;2023-03-20T09:00:55;101161.81;;;8.18;55.27
79037;BME280;68434;59.896;30.474;2023-03-20T09:03:25;101158.00;;;8.31;55.97
79037;BME280;68434;59.896;30.474;2023-03-20T09:05:54;101160.81;;;8.30;55.39
79037;BME280;68434;59.896;30.474;2023-03-20T09:08:22;101158.13;;;8.30;56.26
79037;BME280;68434;59.896;30.474;2023-03-20T09:10:49;101153.13;;;8.25;55.97
79037;BME280;68434;59.896;30.474;2023-03-20T09:13:17;101159.34;;;8.26;55.67
79037;BME280;68434;59.896;30.474;2023-03-20T09:15:44;101149.13;;;8.40;55.09
79037;BME280;68434;59.896;30.474;2023-03-20T09:18:12;101148.09;;;8.62;54.98
79037;BME280;68434;59.896;30.474;2023-03-20T09:20:40;101140.41;;;8.78;55.09
79037;BME280;68434;59.896;30.474;2023-03-20T09:23:09;101128.22;;;8.83;54.18
79037;BME280;68434;59.896;30.474;2023-03-20T09:25:36;101125.06;;;8.78;53.97
79037;BME280;68434;59.896;30.474;2023-03-20T09:28:04;101127.06;;;8.76;53.99
79037;BME280;68434;59.896;30.474;2023-03-20T09:30:31;101128.47;;;8.80;54.37
79037;BME280;68434;59.896;30.474;2023-03-20T09:32:59;101118.63;;;9.00;54.17
79037;BME280;68434;59.896;30.474;2023-03-20T09:35:26;101121.97;;;9.22;53.81
79037;BME280;68434;59.896;30.474;2023-03-20T09:37:54;101113.19;;;9.30;53.31
79037;BME280;68434;59.896;30.474;2023-03-20T09:40:26;101106.97;;;9.39;52.99
79037;BME280;68434;59.896;30.474;2023-03-20T09:43:03;101109.09;;;9.45;52.50
79037;BME280;68434;59.896;30.474;2023-03-20T09:45:42;101109.06;;;9.26;53.59
79037;BME280;68434;59.896;30.474;2023-03-20T09:48:15;101112.31;;;9.29;52.67
79037;BME280;68434;59.896;30.474;2023-03-20T09:50:48;101105.81;;;9.32;53.20
79037;BME280;68434;59.896;30.474;2023-03-20T09:53:25;101100.41;;;9.41;52.62
79037;BME280;68434;59.896;30.474;2023-03-20T09:55:56;101096.03;;;9.40;52.82
79037;BME280;68434;59.896;30.474;2023-03-20T09:58:25;101093.34;;;9.50;52.50
79037;BME280;68434;59.896;30.474;2023-03-20T10:00:56;101083.56;;;9.68;52.30
79037;BME280;68434;59.896;30.474;2023-03-20T10:03:27;101077.59;;;9.74;52.14
79037;BME280;68434;59.896;30.474;2023-03-20T10:05:58;101075.00;;;9.63;51.41
79037;BME280;68434;59.896;30.474;2023-03-20T10:08:32;101073.72;;;9.67;51.69
79037;BME280;68434;59.896;30.474;2023-03-20T10:11:14;101074.59;;;9.68;52.77
79037;BME280;68434;59.896;30.474;2023-03-20T10:13:58;101065.34;;;9.70;52.59
79037;BME280;68434;59.896;30.474;2023-03-20T10:16:44;101065.22;;;9.81;51.75
79037;BME280;68434;59.896;30.474;2023-03-20T10:19:22;101058.22;;;9.98;51.47
79037;BME280;68434;59.896;30.474;2023-03-20T10:21:56;101047.84;;;9.93;51.67
79037;BME280;68434;59.896;30.474;2023-03-20T10:24:28;101044.84;;;9.87;51.87
79037;BME280;68434;59.896;30.474;2023-03-20T10:27:03;101038.34;;;9.80;51.47
79037;BME280;68434;59.896;30.474;2023-03-20T10:29:40;101037.19;;;9.82;51.27
79037;BME280;68434;59.896;30.474;2023-03-20T10:32:17;101028.50;;;9.88;51.11
79037;BME280;68434;59.896;30.474;2023-03-20T10:34:58;101021.97;;;9.81;51.45
79037;BME280;68434;59.896;30.474;2023-03-20T10:37:39;101016.72;;;9.89;51.13
79037;BME280;68434;59.896;30.474;2023-03-20T10:40:21;101014.69;;;9.91;51.62
79037;BME280;68434;59.896;30.474;2023-03-20T10:42:55;101007.16;;;9.85;51.59
79037;BME280;68434;59.896;30.474;2023-03-20T10:45:36;101009.16;;;9.93;51.77
79037;BME280;68434;59.896;30.474;2023-03-20T10:48:12;101010.72;;;9.95;50.93
79037;BME280;68434;59.896;30.474;2023-03-20T10:50:45;101002.72;;;10.03;50.89
79037;BME280;68434;59.896;30.474;2023-03-20T10:53:22;101003.19;;;10.08;51.15
79037;BME280;68434;59.896;30.474;2023-03-20T10:55:53;100994.06;;;10.09;51.42
79037;BME280;68434;59.896;30.474;2023-03-20T10:58:25;100994.22;;;10.17;50.96
79037;BME280;68434;59.896;30.474;2023-03-20T11:03:49;100991.59;;;10.35;50.79
79037;BME280;68434;59.896;30.474;2023-03-20T11:06:37;100981.19;;;10.40;50.74
79037;BME280;68434;59.896;30.474;2023-03-20T11:09:11;100968.75;;;10.47;50.73
79037;BME280;68434;59.896;30.474;2023-03-20T11:11:45;100966.31;;;10.53;50.42
79037;BME280;68434;59.896;30.474;2023-03-20T11:14:18;100973.28;;;10.56;50.60
79037;BME280;68434;59.896;30.474;2023-03-20T11:16:48;100965.16;;;10.56;51.10
79037;BME280;68434;59.896;30.474;2023-03-20T11:19:19;100963.66;;;10.71;50.86
79037;BME280;68434;59.896;30.474;2023-03-20T11:21:50;100959.47;;;10.76;50.40
79037;BME280;68434;59.896;30.474;2023-03-20T11:24:32;100952.78;;;10.80;50.40
79037;BME280;68434;59.896;30.474;2023-03-20T11:27:05;100948.06;;;10.82;50.44
79037;BME280;68434;59.896;30.474;2023-03-20T11:29:37;100951.31;;;10.86;50.64
79037;BME280;68434;59.896;30.474;2023-03-20T11:32:21;100953.16;;;10.85;50.40
79037;BME280;68434;59.896;30.474;2023-03-20T11:34:53;100953.16;;;10.85;50.79
79037;BME280;68434;59.896;30.474;2023-03-20T11:37:27;100946.47;;;10.89;49.95
79037;BME280;68434;59.896;30.474;2023-03-20T11:39:59;100939.88;;;10.92;50.18
79037;BME280;68434;59.896;30.474;2023-03-20T11:42:28;100943.00;;;10.97;50.30
79037;BME280;68434;59.896;30.474;2023-03-20T11:44:59;100936.88;;;10.95;50.05
79037;BME280;68434;59.896;30.474;2023-03-20T11:47:31;100936.31;;;10.91;50.38
79037;BME280;68434;59.896;30.474;2023-03-20T11:50:01;100931.75;;;10.92;50.04
79037;BME280;68434;59.896;30.474;2023-03-20T11:52:31;100924.72;;;10.81;49.88
79037;BME280;68434;59.896;30.474;2023-03-20T11:55:02;100925.63;;;10.90;50.23
79037;BME280;68434;59.896;30.474;2023-03-20T11:57:34;100924.19;;;10.95;50.31
79037;BME280;68434;59.896;30.474;2023-03-20T12:00:06;100919.69;;;10.86;50.49
79037;BME280;68434;59.896;30.474;2023-03-20T12:02:43;100924.97;;;10.88;50.15
79037;BME280;68434;59.896;30.474;2023-03-20T12:05:26;100919.84;;;10.85;50.54
79037;BME280;68434;59.896;30.474;2023-03-20T12:07:56;100913.63;;;10.75;50.48
79037;BME280;68434;59.896;30.474;2023-03-20T12:10:28;100912.25;;;10.71;50.66
79037;BME280;68434;59.896;30.474;2023-03-20T12:13:00;100905.59;;;10.65;51.07
79037;BME280;68434;59.896;30.474;2023-03-20T12:15:33;100906.72;;;10.63;50.84
79037;BME280;68434;59.896;30.474;2023-03-20T12:18:05;100913.94;;;10.72;50.75
79037;BME280;68434;59.896;30.474;2023-03-20T12:20:35;100896.94;;;10.79;50.53
79037;BME280;68434;59.896;30.474;2023-03-20T12:23:11;100896.63;;;10.82;50.59
79037;BME280;68434;59.896;30.474;2023-03-20T12:25:43;100893.88;;;10.92;50.55
79037;BME280;68434;59.896;30.474;2023-03-20T12:28:21;100891.25;;;11.00;50.27
79037;BME280;68434;59.896;30.474;2023-03-20T12:31:03;100881.81;;;11.04;50.13
79037;BME280;68434;59.896;30.474;2023-03-20T12:33:42;100880.47;;;11.08;49.82
79037;BME280;68434;59.896;30.474;2023-03-20T12:36:14;100874.22;;;11.07;50.03
79037;BME280;68434;59.896;30.474;2023-03-20T12:38:43;100875.53;;;11.03;50.21
79037;BME280;68434;59.896;30.474;2023-03-20T12:41:14;100872.59;;;10.97;50.12
79037;BME280;68434;59.896;30.474;2023-03-20T12:43:58;100878.34;;;10.94;50.33
79037;BME280;68434;59.896;30.474;2023-03-20T12:46:39;100869.25;;;10.85;50.47
79037;BME280;68434;59.896;30.474;2023-03-20T12:49:17;100870.69;;;10.89;50.80
79037;BME280;68434;59.896;30.474;2023-03-20T12:51:59;100868.28;;;10.86;50.35
79037;BME280;68434;59.896;30.474;2023-03-20T12:54:42;100860.81;;;10.88;50.63
79037;BME280;68434;59.896;30.474;2023-03-20T12:57:20;100857.97;;;10.90;50.26
79037;BME280;68434;59.896;30.474;2023-03-20T13:00:07;100849.38;;;10.94;50.29
79037;BME280;68434;59.896;30.474;2023-03-20T13:02:49;100845.91;;;11.02;50.40
79037;BME280;68434;59.896;30.474;2023-03-20T13:05:29;100840.41;;;11.11;50.15
79037;BME280;68434;59.896;30.474;2023-03-20T13:08:12;100836.69;;;11.12;49.67
79037;BME280;68434;59.896;30.474;2023-03-20T13:10:49;100830.97;;;11.15;50.03
79037;BME280;68434;59.896;30.474;2023-03-20T13:13:27;100830.66;;;11.18;50.07
79037;BME280;68434;59.896;30.474;2023-03-20T13:16:07;100819.31;;;11.15;50.02
79037;BME280;68434;59.896;30.474;2023-03-20T13:18:49;100829.34;;;11.22;49.79
79037;BME280;68434;59.896;30.474;2023-03-20T13:21:23;100813.63;;;11.26;49.95
79037;BME280;68434;59.896;30.474;2023-03-20T13:23:58;100811.22;;;11.23;50.21
79037;BME280;68434;59.896;30.474;2023-03-20T13:26:36;100806.13;;;11.20;50.28
79037;BME280;68434;59.896;30.474;2023-03-20T13:29:09;100802.44;;;11.21;50.13
79037;BME280;68434;59.896;30.474;2023-03-20T13:31:48;100796.84;;;11.22;50.20